Time;durP1;ratioP1;P1;durP2;ratioP2;P2;SDS_P1;SDS_P2;PMS_P1;PMS_P2;Temp;Humidity;BMP_temperature;BMP_pressure;BME280_temperature;BME280_humidity;BME280_pressure;Samples;Min_cycle;Max_cycle;Signal;HPM_P1;HPM_P2
2022/01/22 00:00:25;;;;;;;16.25;6.45;;;;;;;-1.61;82.56;99098.39;1653455;87;21015;-39
2022/01/22 00:02:51;;;;;;;19.85;7.45;;;;;;;-1.55;82.27;99103.92;1653429;86;21064;-39
2022/01/22 00:05:20;;;;;;;18.20;6.37;;;;;;;-1.61;82.72;99101.41;1653706;86;20992;-39
2022/01/22 00:07:47;;;;;;;15.03;5.90;;;;;;;-1.55;82.73;99100.94;1653600;86;21023;-38
2022/01/22 00:10:16;;;;;;;10.45;5.78;;;;;;;-1.46;82.18;99109.00;1721344;83;21050;-38
2022/01/22 00:13:06;;;;;;;18.82;8.35;;;;;;;-1.50;82.42;99107.77;1712415;84;20988;-38
2022/01/22 00:15:14;;;;;;;12.75;6.08;;;;;;;-1.49;82.32;99102.59;1707766;84;20988;-38
2022/01/22 00:17:40;;;;;;;11.03;5.22;;;;;;;-1.43;82.46;99112.00;1712399;83;21011;-38
2022/01/22 00:20:08;;;;;;;11.68;6.83;;;;;;;-1.44;82.67;99105.12;1712910;83;21035;-38
2022/01/22 00:22:36;;;;;;;;;;;;;;;-1.62;83.61;99106.14;1714935;84;21039;-38
2022/01/22 00:25:07;;;;;;;9.73;4.97;;;;;;;-1.60;83.45;99102.70;1712399;84;20113;-38
2022/01/22 00:27:30;;;;;;;10.48;6.03;;;;;;;-1.55;83.00;99097.48;1711785;84;21004;-38
2022/01/22 00:29:56;;;;;;;14.93;6.78;;;;;;;-1.60;83.09;99097.54;1712331;84;20987;-38
2022/01/22 00:32:22;;;;;;;15.85;5.95;;;;;;;-1.60;83.09;99097.54;1712399;83;21016;-38
2022/01/22 00:34:48;;;;;;;13.22;6.78;;;;;;;-1.52;83.70;99114.67;1712377;84;21452;-38
2022/01/22 00:37:14;;;;;;;11.20;5.83;;;;;;;-1.60;84.31;99109.14;1712421;83;21015;-38
2022/01/22 00:39:40;;;;;;;10.45;5.50;;;;;;;-1.48;83.43;99111.18;1712440;83;21015;-37
2022/01/22 00:42:11;;;;;;;9.13;5.78;;;;;;;-1.61;83.79;99115.16;1712420;83;21481;-37
2022/01/22 00:44:34;;;;;;;9.68;5.65;;;;;;;-1.58;84.52;99111.27;1711679;84;21078;-38
2022/01/22 00:47:02;;;;;;;12.88;6.10;;;;;;;-1.58;84.08;99114.30;1712329;83;21047;-39
2022/01/22 00:49:28;;;;;;;;;;;;;;;-1.61;84.57;99107.42;1714890;84;21470;-39
2022/01/22 00:51:54;;;;;;;15.45;6.15;;;;;;;-1.53;84.00;99112.94;1712614;84;20470;-38
2022/01/22 00:54:20;;;;;;;12.20;6.12;;;;;;;-1.58;83.95;99113.84;1712416;83;21011;-39
2022/01/22 00:56:46;;;;;;;11.93;6.20;;;;;;;-1.58;83.96;99116.87;1712380;84;21007;-37
2022/01/22 00:59:12;;;;;;;13.05;5.97;;;;;;;-1.57;83.59;99114.25;1712360;83;21011;-38
2022/01/22 01:01:38;;;;;;;12.45;5.75;;;;;;;-1.51;83.31;99108.63;1712478;83;21020;-40
2022/01/22 01:04:07;;;;;;;17.67;8.65;;;;;;;-1.58;83.28;99113.84;1712447;84;21639;-38
2022/01/22 01:06:32;;;;;;;11.35;6.33;;;;;;;-1.55;83.15;99115.12;1712100;83;21394;-38
2022/01/22 01:09:00;;;;;;;12.10;5.47;;;;;;;-1.48;82.85;99116.34;1712405;84;21401;-38
2022/01/22 01:11:27;;;;;;;;;;;;;;;-1.51;82.84;99117.64;1714754;84;21074;-38
2022/01/22 01:13:57;;;;;;;14.58;6.60;;;;;;;-1.52;82.82;99115.95;1712379;84;20129;-38
2022/01/22 01:16:43;;;;;;;12.10;6.50;;;;;;;-1.50;82.35;99119.38;1711766;83;21500;-38
2022/01/22 01:32:42;;;;;;;13.10;6.67;;;;;;;-1.70;83.39;99103.64;1712486;84;20995;-39
2022/01/22 01:35:04;;;;;;;14.18;7.25;;;;;;;-1.73;83.12;99108.81;1710454;84;21007;-38
2022/01/22 01:37:27;;;;;;;;;;;;;;;-1.71;82.93;99105.81;1714376;83;20996;-39
2022/01/22 01:39:59;;;;;;;11.90;7.28;;;;;;;-1.74;82.78;99107.12;1712511;84;20117;-38
2022/01/22 01:42:35;;;;;;;;;;;;;;;-1.77;82.63;99105.40;1713883;84;21496;-38
2022/01/22 01:44:51;;;;;;;10.58;6.10;;;;;;;-1.84;82.73;99105.47;1709283;84;20435;-38
2022/01/22 01:47:18;;;;;;;16.05;6.67;;;;;;;-1.85;82.72;99101.20;1712009;83;21027;-37
2022/01/22 01:49:44;;;;;;;;;;;;;;;-1.94;82.75;99103.41;1686548;85;20980;-37
2022/01/22 01:52:16;;;;;;;16.77;7.47;;;;;;;-1.98;82.68;99101.29;1693353;84;20131;-37
2022/01/22 01:54:48;;;;;;;14.47;7.15;;;;;;;-2.01;82.66;99105.17;1694749;84;21003;-37
2022/01/22 01:57:31;;;;;;;12.15;5.87;;;;;;;-1.96;82.64;99105.15;1693939;84;21567;-38
2022/01/22 01:59:52;;;;;;;9.48;6.20;;;;;;;-1.94;82.50;99104.26;1694537;84;20995;-37
2022/01/22 02:02:19;;;;;;;13.58;6.08;;;;;;;-2.04;82.36;99105.62;1695868;85;21011;-37
2022/01/22 02:04:45;;;;;;;10.98;5.30;;;;;;;-2.10;82.24;99106.53;1695882;84;21018;-38
2022/01/22 02:07:11;;;;;;;18.67;7.08;;;;;;;-2.17;82.53;99106.14;1695718;85;21533;-38
2022/01/22 02:09:38;;;;;;;14.03;6.50;;;;;;;-2.22;82.48;99115.62;1695696;84;21049;-38
2022/01/22 02:12:16;;;;;;;18.80;6.28;;;;;;;-2.26;82.54;99108.78;1695689;84;21022;-38
2022/01/22 02:25:21;;;;;;;11.80;5.70;;;;;;;-2.43;83.22;99102.46;1695800;84;21540;-38
2022/01/22 02:27:47;;;;;;;16.48;5.97;;;;;;;-2.42;83.15;99102.86;1695613;83;21039;-38
2022/01/22 02:30:20;;;;;;;12.13;5.35;;;;;;;-2.44;83.13;99102.87;1695591;85;20990;-38
2022/01/22 02:32:57;;;;;;;10.45;4.87;;;;;;;-2.49;83.00;99102.48;1694580;84;21516;-38
2022/01/22 02:35:22;;;;;;;14.00;5.40;;;;;;;-2.49;83.11;99103.77;1692971;84;20999;-38
2022/01/22 02:37:48;;;;;;;9.05;4.70;;;;;;;-2.48;82.90;99103.76;1694221;84;20983;-38
2022/01/22 02:43:04;;;;;;;8.48;4.75;;;;;;;-2.58;83.26;99108.11;1699787;82;21139;-39
2022/01/22 02:45:31;;;;;;;13.78;5.42;;;;;;;-2.56;83.25;99101.67;1733857;83;20970;-47
2022/01/22 02:47:57;;;;;;;9.20;4.80;;;;;;;-2.59;82.80;99110.69;1733930;81;21449;-39
2022/01/22 02:50:23;;;;;;;12.90;5.85;;;;;;;-2.66;83.11;99111.58;1733817;83;21044;-37
2022/01/22 02:52:49;;;;;;;11.80;5.15;;;;;;;-2.66;83.16;99109.85;1733849;82;21046;-37
2022/01/22 02:55:16;;;;;;;13.95;5.90;;;;;;;-2.65;83.04;99114.59;1733813;83;21069;-38
2022/01/22 02:57:45;;;;;;;11.93;5.22;;;;;;;-2.63;82.95;99115.44;1734148;83;21097;-38
2022/01/22 03:00:17;;;;;;;9.95;4.87;;;;;;;-2.68;82.82;99114.59;1733982;81;21014;-37
2022/01/22 03:02:43;;;;;;;11.95;5.75;;;;;;;-2.71;82.78;99122.77;1733768;83;21492;-38
2022/01/22 03:05:10;;;;;;;9.08;4.85;;;;;;;-2.76;82.65;99120.63;1733900;83;21014;-37
2022/01/22 03:07:38;;;;;;;11.90;5.03;;;;;;;-2.81;83.10;99121.08;1733983;83;21048;-37
2022/01/22 03:10:05;;;;;;;14.95;6.15;;;;;;;-2.86;83.24;99121.97;1733714;83;20998;-38
2022/01/22 03:12:50;;;;;;;12.33;5.72;;;;;;;-2.86;83.31;99116.81;1733928;83;21026;-38
2022/01/22 03:18:07;;;;;;;7.90;4.10;;;;;;;-2.90;83.34;99124.53;1733856;83;21025;-37
2022/01/22 03:21:01;;;;;;;8.00;4.60;;;;;;;-2.79;82.96;99125.78;1732462;83;20970;-37
2022/01/22 03:28:29;;;;;;;8.55;4.92;;;;;;;-2.92;82.87;99134.42;1733901;83;21027;-37
2022/01/22 03:30:53;;;;;;;11.03;5.08;;;;;;;-2.88;82.89;99136.11;1733322;83;21482;-38
2022/01/22 03:33:22;;;;;;;9.88;5.08;;;;;;;-2.86;82.99;99136.96;1733835;82;21010;-38
2022/01/22 03:35:54;;;;;;;;;;;;;;;-2.80;83.37;99134.39;1736157;83;21002;-38
2022/01/22 03:38:14;;;;;;;12.55;5.70;;;;;;;-2.79;83.54;99138.66;1732570;83;20116;-38
2022/01/22 03:40:40;;;;;;;10.88;5.03;;;;;;;-2.79;83.05;99141.23;1733813;82;21039;-38
2022/01/22 03:43:06;;;;;;;7.15;4.00;;;;;;;-2.72;82.69;99148.06;1733657;83;21074;-38
2022/01/22 03:45:32;;;;;;;9.58;4.12;;;;;;;-2.77;83.08;99152.37;1733819;82;20982;-38
2022/01/22 03:47:57;;;;;;;8.13;3.98;;;;;;;-2.70;83.41;99156.63;1733818;82;21005;-38
2022/01/22 03:50:23;;;;;;;9.20;4.47;;;;;;;-2.71;83.32;99156.22;1733951;82;21006;-38
2022/01/22 03:52:49;;;;;;;8.05;3.65;;;;;;;-2.74;83.01;99160.09;1733878;83;21468;-38
2022/01/22 03:57:46;;;;;;;9.63;4.40;;;;;;;-2.71;82.56;99169.50;1702472;83;21425;-38
2022/01/22 04:00:13;;;;;;;9.58;4.30;;;;;;;-2.74;82.82;99172.11;1733854;82;21006;-37
2022/01/22 04:05:08;;;;;;;6.92;3.47;;;;;;;-2.80;82.46;99157.55;1733719;83;21535;-37
2022/01/22 04:10:09;;;;;;;5.17;3.35;;;;;;;-2.74;82.15;99165.67;1733801;82;20966;-37
2022/01/22 04:12:47;;;;;;;5.03;2.90;;;;;;;-2.80;82.22;99175.56;1733775;83;21492;-37
2022/01/22 04:15:09;;;;;;;7.75;3.25;;;;;;;-2.79;82.12;99173.40;1731763;82;21206;-38
2022/01/22 04:26:00;;;;;;;6.80;2.70;;;;;;;-2.73;82.01;99190.12;1733823;83;21018;-38
2022/01/22 04:28:16;;;;;;;8.38;3.58;;;;;;;-2.67;81.70;99189.66;1730608;83;21547;-37
2022/01/22 04:30:42;;;;;;;7.33;3.80;;;;;;;-2.79;81.92;99195.72;1733861;81;21034;-39
2022/01/22 04:33:08;;;;;;;10.38;4.15;;;;;;;-2.71;82.15;99190.09;1733786;82;21002;-39
2022/01/22 04:35:34;;;;;;;11.73;4.70;;;;;;;-2.74;82.35;99191.41;1733823;82;21010;-38
2022/01/22 04:38:00;;;;;;;9.63;3.60;;;;;;;-2.70;82.06;99194.39;1733805;82;21041;-38
2022/01/22 04:40:26;;;;;;;8.50;3.62;;;;;;;-2.63;81.82;99192.67;1733726;83;21013;-39
2022/01/22 04:42:51;;;;;;;7.67;3.22;;;;;;;-2.70;81.40;99196.53;1728226;83;21029;-39
2022/01/22 04:45:42;;;;;;;5.62;2.72;;;;;;;-2.64;81.60;99204.66;1713451;83;21014;-39
2022/01/22 04:55:48;;;;;;;6.60;2.87;;;;;;;-2.71;81.02;99206.42;1713425;84;21003;-38
2022/01/22 04:58:15;;;;;;;4.22;2.55;;;;;;;-2.77;81.19;99213.30;1713658;84;21443;-39
2022/01/22 05:00:45;;;;;;;7.53;2.55;;;;;;;-2.85;81.51;99209.45;1713534;84;20998;-38
2022/01/22 05:03:11;;;;;;;4.53;2.55;;;;;;;-2.87;81.60;99211.59;1713606;84;21043;-38
2022/01/22 05:05:37;;;;;;;4.40;2.62;;;;;;;-2.94;81.42;99214.63;1713504;84;21503;-38
2022/01/22 05:08:03;;;;;;;11.05;3.33;;;;;;;-2.93;81.47;99215.03;1713646;84;21460;-38
2022/01/22 05:10:28;;;;;;;4.92;3.00;;;;;;;-2.88;81.52;99221.03;1713541;84;21055;-38
2022/01/22 05:12:54;;;;;;;5.20;2.52;;;;;;;-2.98;81.77;99212.93;1713554;84;21003;-39
2022/01/22 05:15:21;;;;;;;8.70;3.20;;;;;;;-2.97;81.64;99215.91;1713620;83;21043;-38
2022/01/22 05:17:47;;;;;;;7.55;3.47;;;;;;;-3.04;81.46;99216.78;1713742;84;21560;-37
2022/01/22 05:20:34;;;;;;;5.33;2.80;;;;;;;-3.04;81.80;99225.78;1713470;84;20998;-39
2022/01/22 05:23:00;;;;;;;7.22;2.95;;;;;;;-3.04;81.95;99227.91;1711646;83;21489;-38
2022/01/22 05:26:24;;;;;;;7.50;3.40;;;;;;;-3.05;81.53;99235.66;1712859;83;20963;-38
2022/01/22 05:30:53;;;;;;;6.08;2.72;;;;;;;-3.16;81.94;99237.80;1713482;84;21003;-38
2022/01/22 05:38:34;;;;;;;9.48;3.50;;;;;;;-3.13;81.78;99247.22;1713635;84;20995;-38
2022/01/22 05:41:01;;;;;;;6.35;2.90;;;;;;;-3.09;81.73;99254.10;1713679;84;21035;-38
2022/01/22 05:43:27;;;;;;;4.60;3.10;;;;;;;-3.07;81.33;99243.78;1727295;83;21029;-39
2022/01/22 05:45:53;;;;;;;10.13;3.98;;;;;;;-3.04;81.29;99245.92;1733890;81;21042;-39
2022/01/22 05:48:19;;;;;;;12.45;4.67;;;;;;;-3.09;81.04;99252.81;1733927;83;21535;-39
2022/01/22 05:50:51;;;;;;;7.58;3.80;;;;;;;-3.12;81.30;99259.23;1733828;83;21458;-38
2022/01/22 06:01:15;;;;;;;9.08;4.08;;;;;;;-3.16;81.54;99276.39;1733921;83;21662;-38
2022/01/22 06:03:41;;;;;;;9.33;3.95;;;;;;;-3.19;81.70;99275.53;1733948;83;21500;-39
2022/01/22 06:06:07;;;;;;;22.20;7.72;;;;;;;-3.17;81.60;99290.09;1733841;82;21045;-38
2022/01/22 06:08:38;;;;;;;24.45;8.38;;;;;;;-3.16;81.64;99291.83;1733923;82;21543;-38
2022/01/22 06:11:08;;;;;;;11.45;4.28;;;;;;;-3.17;82.11;99288.81;1732919;83;20959;-38
2022/01/22 06:13:43;;;;;;;11.97;4.72;;;;;;;-3.11;81.75;99291.80;1732542;83;20990;-38
2022/01/22 06:15:56;;;;;;;8.35;3.90;;;;;;;-3.10;81.52;99291.81;1730758;83;20970;-37
2022/01/22 06:18:22;;;;;;;8.73;3.60;;;;;;;-3.10;81.37;99286.66;1733844;82;21022;-38
2022/01/22 06:20:48;;;;;;;8.08;3.55;;;;;;;-3.06;81.34;99290.53;1733841;82;20997;-38
2022/01/22 06:23:14;;;;;;;8.50;4.00;;;;;;;-3.02;81.17;99292.23;1733820;82;21033;-38
2022/01/22 06:25:40;;;;;;;7.03;3.17;;;;;;;-3.07;80.96;99302.55;1733825;83;21013;-37
2022/01/22 06:28:06;;;;;;;10.60;4.10;;;;;;;-3.08;80.83;99298.25;1733910;81;20979;-39
2022/01/22 06:30:32;;;;;;;9.85;3.90;;;;;;;-3.02;80.83;99293.52;1733886;82;21559;-39
2022/01/22 06:32:58;;;;;;;8.13;3.58;;;;;;;-2.98;80.79;99312.84;1733846;81;21010;-38
2022/01/22 06:35:24;;;;;;;12.07;4.87;;;;;;;-2.97;80.52;99317.11;1733817;83;20978;-39
2022/01/22 06:37:51;;;;;;;9.85;4.28;;;;;;;-2.96;80.40;99315.41;1733957;83;21502;-38
2022/01/22 06:42:43;;;;;;;12.25;4.50;;;;;;;-2.80;79.91;99328.70;1729859;83;21079;-39
2022/01/22 06:45:09;;;;;;;8.20;3.83;;;;;;;-2.77;79.75;99327.83;1713586;84;21509;-39
2022/01/22 06:47:35;;;;;;;10.32;4.08;;;;;;;-2.70;79.53;99334.25;1713417;84;21523;-39
2022/01/22 06:50:02;;;;;;;11.78;3.85;;;;;;;-2.59;79.53;99335.52;1713474;84;20980;-39
2022/01/22 06:52:29;;;;;;;8.58;3.47;;;;;;;-2.48;79.40;99341.94;1713878;83;21503;-39
2022/01/22 06:54:55;;;;;;;8.93;3.58;;;;;;;-2.42;78.89;99340.66;1713652;84;21042;-40
2022/01/22 06:57:21;;;;;;;8.25;3.42;;;;;;;-2.45;78.07;99341.95;1713493;83;21007;-39
2022/01/22 06:59:48;;;;;;;7.40;3.77;;;;;;;-2.40;78.08;99343.21;1713582;83;21003;-39
2022/01/22 07:02:14;;;;;;;5.10;2.55;;;;;;;-2.44;77.80;99351.81;1713549;84;21547;-38
2022/01/22 07:04:40;;;;;;;9.25;4.05;;;;;;;-2.36;77.47;99350.94;1713442;83;21038;-39
2022/01/22 07:07:10;;;;;;;7.97;3.50;;;;;;;-2.32;77.51;99355.22;1713466;84;20976;-39
2022/01/22 07:09:37;;;;;;;8.65;3.30;;;;;;;-2.32;77.19;99355.66;1713462;84;21480;-38
2022/01/22 07:12:04;;;;;;;6.40;3.40;;;;;;;-2.21;77.44;99356.48;1713704;83;21010;-40
2022/01/22 07:14:30;;;;;;;8.95;3.37;;;;;;;-2.18;77.08;99372.38;1713466;84;21051;-39
2022/01/22 07:16:56;;;;;;;5.00;2.52;;;;;;;-2.18;76.87;99364.66;1713467;83;21003;-39
2022/01/22 07:19:22;;;;;;;5.17;3.08;;;;;;;-2.17;76.60;99354.75;1713479;84;20975;-39
2022/01/22 07:22:20;;;;;;;6.70;2.83;;;;;;;-2.28;76.54;99364.23;1713467;83;21015;-38
2022/01/22 07:24:26;;;;;;;6.42;2.58;;;;;;;-2.34;76.48;99369.82;1707545;84;21035;-38
2022/01/22 07:26:55;;;;;;;8.65;3.27;;;;;;;-2.31;76.53;99375.39;1713457;84;21520;-37
2022/01/22 07:29:22;;;;;;;18.90;6.92;;;;;;;-2.28;76.56;99366.38;1713533;83;21011;-38
2022/01/22 07:31:48;;;;;;;6.80;3.42;;;;;;;-2.17;76.74;99368.48;1713627;84;21485;-37
2022/01/22 07:34:15;;;;;;;9.05;4.00;;;;;;;-2.13;76.36;99379.64;1713446;84;21014;-38
2022/01/22 07:36:41;;;;;;;7.62;3.40;;;;;;;-2.18;76.35;99374.52;1713464;83;21011;-38
2022/01/22 07:39:07;;;;;;;9.93;3.70;;;;;;;-2.17;76.28;99383.95;1713436;83;21011;-38
2022/01/22 07:41:33;;;;;;;6.42;3.65;;;;;;;-2.15;76.24;99387.81;1713567;83;21050;-38
2022/01/22 07:43:59;;;;;;;7.33;3.47;;;;;;;-2.21;76.33;99387.84;1720300;83;21027;-39
2022/01/22 07:46:25;;;;;;;5.80;3.17;;;;;;;-2.29;76.46;99401.14;1724196;83;21010;-38
2022/01/22 07:48:51;;;;;;;7.87;3.52;;;;;;;-2.22;76.64;99406.72;1724243;83;21010;-38
2022/01/22 07:51:17;;;;;;;10.98;3.60;;;;;;;-2.14;76.62;99419.17;1724209;83;21547;-40
2022/01/22 07:53:44;;;;;;;9.80;3.30;;;;;;;-2.09;76.57;99412.30;1724225;83;21615;-39
2022/01/22 07:56:14;;;;;;;7.25;3.25;;;;;;;-2.20;76.24;99429.47;1724456;83;21014;-38
2022/01/22 07:58:40;;;;;;;14.50;7.25;;;;;;;-2.14;76.37;99417.88;1724129;83;21066;-38
2022/01/22 08:01:06;;;;;;;18.62;8.08;;;;;;;-2.01;76.53;99414.41;1724203;83;21045;-38
2022/01/22 08:03:32;;;;;;;10.80;4.45;;;;;;;-1.94;75.92;99413.53;1724052;83;21497;-38
2022/01/22 08:05:58;;;;;;;7.35;3.72;;;;;;;-1.84;75.95;99434.12;1723438;82;20975;-37
2022/01/22 08:08:23;;;;;;;6.87;3.45;;;;;;;-1.82;75.62;99434.97;1722738;83;21031;-38
2022/01/22 08:10:49;;;;;;;8.45;4.47;;;;;;;-1.83;75.45;99445.72;1722792;83;21003;-39
2022/01/22 08:13:18;;;;;;;11.50;5.62;;;;;;;-1.91;74.86;99440.16;1720943;83;21019;-40
2022/01/22 08:15:43;;;;;;;9.20;4.05;;;;;;;-1.78;75.05;99449.16;1720646;83;21034;-39
2022/01/22 08:18:08;;;;;;;7.00;3.20;;;;;;;-1.85;74.52;99454.34;1720841;83;20959;-38
2022/01/22 08:20:34;;;;;;;6.47;3.17;;;;;;;-1.78;74.75;99458.62;1720817;83;21035;-39
2022/01/22 08:23:00;;;;;;;9.08;3.65;;;;;;;-1.69;74.57;99453.84;1729436;82;20992;-39
2022/01/22 08:25:29;;;;;;;7.37;4.10;;;;;;;-1.84;74.29;99456.03;1729521;83;20996;-39
2022/01/22 08:30:32;;;;;;;10.65;3.65;;;;;;;-1.69;74.09;99453.44;1729660;83;21059;-40
2022/01/22 08:33:21;;;;;;;8.88;3.70;;;;;;;-1.58;74.37;99464.56;1729578;83;21541;-38
2022/01/22 08:38:11;;;;;;;7.30;3.10;;;;;;;-1.56;73.39;99460.69;1729647;83;21076;-40
2022/01/22 08:40:36;;;;;;;7.08;2.70;;;;;;;-1.46;73.50;99456.34;1729741;83;21036;-40
2022/01/22 08:43:02;;;;;;;4.87;2.37;;;;;;;-1.48;72.94;99453.77;1729520;83;21660;-36
2022/01/22 08:45:28;;;;;;;7.78;3.22;;;;;;;-1.52;73.03;99445.63;1729246;83;20998;-39
2022/01/22 08:47:54;;;;;;;10.45;3.58;;;;;;;-1.52;72.49;99444.34;1729241;83;21026;-39
2022/01/22 08:50:19;;;;;;;5.50;2.70;;;;;;;-1.52;72.55;99461.10;1729295;83;21535;-38
2022/01/22 08:52:45;;;;;;;6.65;3.02;;;;;;;-1.73;71.83;99462.02;1729108;83;21429;-38
2022/01/22 08:55:11;;;;;;;8.18;3.75;;;;;;;-1.51;72.24;99456.79;1729160;83;21038;-39
2022/01/22 08:57:37;;;;;;;5.65;3.30;;;;;;;-1.50;72.38;99470.13;1729135;83;21042;-38
2022/01/22 09:00:06;;;;;;;8.88;3.77;;;;;;;-1.53;72.13;99471.42;1729143;83;21118;-39
2022/01/22 09:02:31;;;;;;;5.15;2.67;;;;;;;-1.45;72.35;99475.70;1729030;83;21539;-39
2022/01/22 09:04:57;;;;;;;6.53;3.15;;;;;;;-1.27;72.51;99479.92;1729062;81;21196;-38
2022/01/22 09:07:23;;;;;;;7.10;4.03;;;;;;;-1.37;71.76;99489.84;1729185;83;21066;-38
2022/01/22 09:09:49;;;;;;;9.90;3.47;;;;;;;-1.43;71.87;99499.75;1729116;83;21047;-39
2022/01/22 09:12:16;;;;;;;7.28;3.15;;;;;;;-1.38;71.52;99490.73;1729067;83;20959;-40
2022/01/22 09:14:42;;;;;;;11.38;4.35;;;;;;;-1.19;72.15;99501.38;1729306;83;21025;-39
2022/01/22 09:17:09;;;;;;;12.23;4.95;;;;;;;-1.14;71.41;99519.88;1729418;83;20990;-39
2022/01/22 09:19:35;;;;;;;12.35;4.25;;;;;;;-1.14;71.41;99519.88;1729138;83;21480;-38
2022/01/22 09:22:04;;;;;;;12.28;4.20;;;;;;;-1.11;70.99;99519.84;1729066;83;21049;-38
2022/01/22 09:24:31;;;;;;;9.90;4.22;;;;;;;-1.08;70.54;99530.16;1729165;83;21014;-39
2022/01/22 09:26:58;;;;;;;7.70;3.75;;;;;;;-0.99;70.69;99531.41;1729148;83;21031;-39
2022/01/22 09:29:25;;;;;;;9.20;3.58;;;;;;;-1.07;69.94;99540.92;1729219;83;21027;-40
2022/01/22 09:31:51;;;;;;;10.13;4.00;;;;;;;-1.05;70.38;99544.36;1729373;83;21488;-39
2022/01/22 09:34:17;;;;;;;11.48;4.42;;;;;;;-1.16;70.29;99546.53;1729089;83;21026;-39
2022/01/22 09:36:43;;;;;;;19.10;7.50;;;;;;;-1.03;70.97;99549.08;1729174;83;20975;-39
2022/01/22 09:39:09;;;;;;;15.20;6.12;;;;;;;-0.99;70.67;99553.35;1729170;83;21010;-39
2022/01/22 09:41:36;;;;;;;9.85;3.75;;;;;;;-1.13;69.95;99553.84;1729372;81;21038;-39
2022/01/22 09:44:02;;;;;;;9.70;3.75;;;;;;;-1.07;70.02;99559.00;1730106;82;20988;-39
2022/01/22 09:46:29;;;;;;;12.25;4.67;;;;;;;-0.89;70.40;99558.91;1729623;83;21055;-38
2022/01/22 09:48:56;;;;;;;8.33;3.72;;;;;;;-0.89;69.91;99557.63;1729752;83;21775;-39
2022/01/22 09:51:23;;;;;;;27.22;10.55;;;;;;;-0.74;70.45;99563.14;1729777;83;21011;-39
2022/01/22 09:53:49;;;;;;;11.33;5.15;;;;;;;-0.66;70.33;99561.80;1729590;83;20988;-39
2022/01/22 09:56:24;;;;;;;10.25;4.42;;;;;;;-0.63;69.75;99556.19;1729699;83;21004;-39
2022/01/22 09:58:51;;;;;;;7.35;3.83;;;;;;;-0.56;69.90;99573.81;1729714;83;20984;-38
2022/01/22 10:01:27;;;;;;;18.47;5.20;;;;;;;-0.79;69.54;99581.66;1729881;83;21505;-39
2022/01/22 10:03:59;;;;;;;10.10;4.12;;;;;;;-0.82;69.67;99582.55;1729819;83;21662;-39
2022/01/22 10:06:28;;;;;;;13.43;5.60;;;;;;;-0.84;69.83;99588.13;1729719;83;20991;-39
2022/01/22 10:09:15;;;;;;;8.75;3.92;;;;;;;-0.93;69.85;99590.75;1729054;83;21008;-39
2022/01/22 10:11:42;;;;;;;13.50;6.40;;;;;;;-0.97;70.25;99590.34;1729489;83;21028;-40
2022/01/22 10:14:08;;;;;;;7.83;4.22;;;;;;;-0.93;70.28;99586.03;1729773;83;21144;-39
2022/01/22 10:16:40;;;;;;;12.88;5.05;;;;;;;-0.95;70.35;99589.90;1729988;82;20992;-39
2022/01/22 10:19:20;;;;;;;24.63;7.97;;;;;;;-0.96;70.47;99584.33;1728144;83;21012;-40
2022/01/22 10:22:01;;;;;;;13.98;5.22;;;;;;;-0.87;70.34;99598.48;1728478;83;20981;-40
2022/01/22 10:24:44;;;;;;;15.03;5.37;;;;;;;-0.97;70.05;99595.50;1729810;83;21749;-39
2022/01/22 10:27:26;;;;;;;12.68;4.72;;;;;;;-1.05;70.40;99586.50;1729460;83;21587;-40
2022/01/22 10:30:00;;;;;;;12.23;4.22;;;;;;;-0.84;70.58;99594.58;1727716;83;20988;-39
2022/01/22 10:35:23;;;;;;;10.82;4.50;;;;;;;-0.88;70.34;99604.50;1729704;83;21008;-39
2022/01/22 10:38:02;;;;;;;9.10;4.45;;;;;;;-0.90;70.13;99606.67;1729630;83;21542;-39
2022/01/22 10:40:38;;;;;;;11.53;4.53;;;;;;;-0.84;70.03;99597.61;1729628;83;21449;-41
2022/01/22 10:43:30;;;;;;;8.18;4.08;;;;;;;-0.81;70.08;99600.19;1729562;83;21012;-40
2022/01/22 10:46:09;;;;;;;13.85;5.15;;;;;;;-0.80;70.08;99607.93;1729250;83;20981;-40
2022/01/22 10:48:42;;;;;;;11.20;4.95;;;;;;;-0.80;69.89;99610.52;1729696;83;21003;-40
2022/01/22 10:51:15;;;;;;;9.75;4.65;;;;;;;-0.78;69.58;99611.36;1729717;83;21529;-40
2022/01/22 10:53:59;;;;;;;12.25;4.40;;;;;;;-0.74;69.96;99620.39;1729696;83;21569;-39
2022/01/22 10:56:31;;;;;;;12.25;4.80;;;;;;;-0.80;69.93;99616.09;1729639;83;20981;-39
2022/01/22 10:59:07;;;;;;;9.35;3.92;;;;;;;-0.70;69.64;99619.06;1729682;83;21008;-39
2022/01/22 11:01:55;;;;;;;10.70;4.30;;;;;;;-0.63;69.69;99622.49;1729639;83;20977;-38
2022/01/22 11:04:30;;;;;;;7.45;3.27;;;;;;;-0.54;69.98;99640.53;1728506;82;20980;-38
2022/01/22 11:07:04;;;;;;;7.45;3.87;;;;;;;-0.56;69.99;99641.38;1721511;83;20972;-39
2022/01/22 11:09:32;;;;;;;12.35;4.00;;;;;;;-0.63;69.72;99650.91;1729221;83;21012;-39
2022/01/22 11:12:00;;;;;;;10.40;4.20;;;;;;;-0.70;70.23;99647.48;1729716;81;21473;-39
2022/01/22 11:14:31;;;;;;;13.22;4.55;;;;;;;-0.77;70.06;99652.23;1729607;83;20980;-39
2022/01/22 11:16:58;;;;;;;9.20;3.45;;;;;;;-0.64;70.32;99642.72;1729574;83;21020;-39
2022/01/22 11:19:30;;;;;;;14.45;3.90;;;;;;;-0.51;70.18;99647.39;1729570;82;21043;-39
2022/01/22 11:21:55;;;;;;;11.50;3.58;;;;;;;-0.44;69.68;99646.09;1729298;83;21068;-38
2022/01/22 11:24:25;;;;;;;11.75;4.25;;;;;;;-0.38;69.72;99650.37;1729585;83;20977;-38
2022/01/22 11:26:56;;;;;;;11.08;4.28;;;;;;;-0.43;69.73;99659.86;1729689;83;21004;-38
2022/01/22 11:29:26;;;;;;;8.15;3.72;;;;;;;-0.26;69.65;99659.77;1700281;83;20984;-38
2022/01/22 11:31:53;;;;;;;11.78;4.50;;;;;;;-0.42;69.53;99659.86;1729664;83;21012;-39
2022/01/22 11:34:24;;;;;;;17.00;5.72;;;;;;;-0.48;69.60;99662.89;1729742;83;20995;-38
2022/01/22 11:37:30;;;;;;;10.35;4.25;;;;;;;-0.48;69.71;99670.64;1729642;83;21155;-38
2022/01/22 11:40:21;;;;;;;12.82;4.70;;;;;;;-0.35;69.55;99672.29;1666947;86;21020;-38
2022/01/22 11:43:01;;;;;;;11.55;4.60;;;;;;;-0.25;69.44;99677.00;1666811;86;21018;-39
2022/01/22 11:45:50;;;;;;;10.48;4.28;;;;;;;-0.17;69.29;99678.25;1673697;85;21046;-38
2022/01/22 11:48:30;;;;;;;10.88;5.30;;;;;;;-0.18;69.22;99682.98;1675104;85;20982;-38
2022/01/22 11:51:24;;;;;;;14.07;4.65;;;;;;;-0.16;69.64;99695.05;1675789;85;21049;-38
2022/01/22 11:53:56;;;;;;;16.87;5.20;;;;;;;-0.16;69.69;99699.33;1675110;83;21511;-38
2022/01/22 11:56:26;;;;;;;9.90;5.22;;;;;;;-0.21;69.93;99711.00;1675672;85;20994;-38
2022/01/22 11:59:06;;;;;;;12.00;5.67;;;;;;;-0.21;69.63;99711.00;1675802;85;21041;-40
2022/01/22 12:01:53;;;;;;;10.43;4.45;;;;;;;-0.22;69.83;99710.56;1675731;85;20974;-38
2022/01/22 12:04:26;;;;;;;11.97;4.97;;;;;;;-0.26;69.64;99703.70;1669209;85;21037;-39
2022/01/22 12:07:07;;;;;;;10.13;4.15;;;;;;;-0.21;70.00;99714.88;1675960;85;20986;-38
2022/01/22 12:15:32;;;;;;;8.78;3.72;;;;;;;-0.23;69.19;99714.88;1688732;82;20959;-37
2022/01/22 12:18:11;;;;;;;9.18;4.05;;;;;;;-0.19;69.40;99711.85;1729141;83;20986;-37
2022/01/22 12:23:18;;;;;;;14.30;4.78;;;;;;;-0.03;69.16;99720.39;1729237;83;20979;-39
2022/01/22 12:25:48;;;;;;;10.55;4.35;;;;;;;-0.10;68.58;99718.27;1728882;81;20963;-43
2022/01/22 12:28:36;;;;;;;11.65;4.67;;;;;;;0.12;68.92;99729.79;1729037;83;20966;-39
2022/01/22 12:31:10;;;;;;;9.83;3.92;;;;;;;-0.09;68.46;99735.92;1729162;83;21010;-39
2022/01/22 12:33:44;;;;;;;12.23;4.17;;;;;;;0.05;68.74;99737.16;1728952;82;21029;-39
2022/01/22 12:36:18;;;;;;;10.13;4.20;;;;;;;0.15;68.55;99747.89;1729268;83;21016;-38
2022/01/22 12:38:48;;;;;;;9.05;4.15;;;;;;;-0.01;68.20;99736.75;1728103;83;20978;-39
2022/01/22 12:41:47;;;;;;;9.08;3.95;;;;;;;0.03;68.15;99731.13;1728766;83;20946;-39
2022/01/22 12:44:25;;;;;;;10.03;4.30;;;;;;;0.14;68.73;99734.52;1727126;81;20990;-39
2022/01/22 12:46:43;;;;;;;9.30;4.45;;;;;;;0.06;68.48;99741.03;1728817;82;21055;-39
2022/01/22 12:49:11;;;;;;;10.25;3.95;;;;;;;0.05;68.58;99733.27;1729537;82;21039;-41
2022/01/22 12:51:38;;;;;;;10.65;4.25;;;;;;;0.14;68.29;99753.91;1729395;82;21028;-38
2022/01/22 12:54:05;;;;;;;10.05;4.12;;;;;;;-0.06;68.25;99756.16;1729849;83;21015;-39
2022/01/22 12:59:06;;;;;;;13.45;4.55;;;;;;;0.08;68.66;99759.13;1729675;83;21624;-39
2022/01/22 13:01:34;;;;;;;11.93;4.33;;;;;;;0.10;68.67;99758.23;1729435;83;21071;-39
2022/01/22 13:04:04;;;;;;;11.28;5.47;;;;;;;0.13;68.69;99756.09;1671612;85;21502;-36
2022/01/22 13:06:50;;;;;;;9.78;4.60;;;;;;;0.05;68.62;99760.43;1686591;83;20977;-37
2022/01/22 13:09:11;;;;;;;12.25;4.10;;;;;;;-0.01;68.83;99759.59;1648543;87;21015;-37
2022/01/22 13:11:47;;;;;;;13.72;4.62;;;;;;;0.03;68.96;99769.92;1654153;87;21020;-38
2022/01/22 13:14:21;;;;;;;7.15;4.20;;;;;;;-0.01;69.22;99776.83;1654088;87;21063;-38
2022/01/22 13:16:53;;;;;;;11.03;5.17;;;;;;;-0.04;69.39;99784.59;1654885;86;20997;-39